Meteo Giornale » Osservazioni meteo Stati Uniti (USA) » Langley
ore: 04:55 - Osservazioni Meteo Langley
Lat. 37° 5' N Lon. 76° 21' W Alt. 3 metri s.l.m.
25 °C
Sereno
Temp. 24 Ore
24 °C
34 °C
Sud-Ovest
13 Km/h
Dew point 23 °C
Umidità 88 %
Visibilità 10 Km
Il sole sorge alle ore 06:36
Il sole tramonta alle ore 19:34
| Data e Ora | Cielo e Fenomeni | T °C | DP °C | Um. % | Pres. hPa | Vis. km | Vento km/h | |
|---|---|---|---|---|---|---|---|---|
| Oggi h: 04:55 | Sereno | 25 | 23 | 88 | 1017 | 10 | SO 13 | |
| Oggi h: 03:55 | Poco Nuvoloso | 26 | 23 | 83 | 1017 | 10 | SO 14.8 | |
| Oggi h: 02:55 | Nuvoloso | 26 | 23 | 83 | 1017 | 10 | SO 16.7 | |
| Oggi h: 01:55 | Nuvoloso | 26 | 23 | 83 | 1018 | 10 | S/SO 14.8 | |
| Oggi h: 00:55 | Poco Nuvoloso | 26 | 23 | 83 | 1018 | 10 | S 7.4 | |
| Ieri h: 23:55 | Poco Nuvoloso | 26 | 23 | 83 | 1018 | 10 | S 11.1 | |
| Ieri h: 22:55 | Nuvoloso | 25 | 23 | 88 | 1018 | 10 | N 0 | |
| Ieri h: 22:03 | Nuvoloso | 26 | 23 | 83 | 1018 | 10 | N 0 | |
| Ieri h: 21:55 | Pioviggine | 26 | 23 | 83 | 1018 | 10 | N 0 | |
| Ieri h: 21:48 | Pioggia | 26 | 23 | 83 | 1018 | 10 | O 7.4 | |
| Ieri h: 20:55 | Nuvoloso | 27 | 22 | 74 | 1018 | 10 | N 0 | |
| Ieri h: 19:55 | Nuvoloso | 27 | 23 | 78 | 1017 | 10 | S/SE 7.4 | |
| Ieri h: 19:03 | Poco Nuvoloso | 28 | 22 | 69 | 1017 | 10 | N 5.5 | |
| Ieri h: 17:40 | Nuvoloso | 29 | 22 | 66 | 1017 | 10 | S 16.7 | |
| Ieri h: 17:18 | Temporale nelle vicinanze | 29 | 22 | 66 | 1017 | 10 | S 16.7 | |
| Ieri h: 16:29 | Temporale | 25 | 21 | 78 | 1018 | 6 | E/SE 13 | |
| Ieri h: 16:03 | Temporale | 27 | 21 | 69 | 1018 | 3 | O/NO 38.8 | |
| Ieri h: 15:55 | Temporale | 30 | 21 | 58 | 1018 | 5 | N/NO 24 | |
| Ieri h: 15:29 | Temporale | 32 | 23 | 59 | 1017 | 10 | E 20.3 | |
| Ieri h: 14:55 | Molto Nuvoloso | 34 | 21 | 46 | 1017 | 10 | N 0 | |
| Ieri h: 13:55 | Poco Nuvoloso | 33 | 21 | 49 | 1018 | 10 | E/SE 13 | |
| Ieri h: 12:55 | Poco Nuvoloso | 32 | 23 | 59 | 1018 | 10 | NE 14.8 | |
| Ieri h: 11:55 | Poco Nuvoloso | 32 | 22 | 55 | 1019 | 14 | N 0 | |
| Ieri h: 10:55 | Sereno | 30 | 22 | 62 | 1019 | 10 | SO 11.1 | |
| Ieri h: 09:55 | Poco Nuvoloso | 29 | 22 | 66 | 1019 | 10 | SO 9.3 | |
| Ieri h: 08:55 | Nuvoloso | 28 | 22 | 69 | 1018 | 10 | O/SO 9.3 | |
| Ieri h: 07:55 | Molto Nuvoloso | 26 | 23 | 83 | 1019 | 10 | SO 13 | |
| Ieri h: 06:55 | Nuvoloso | 24 | 22 | 88 | 1019 | 10 | S 7.4 | |
| Ieri h: 05:55 | Sereno | 24 | 22 | 88 | 1018 | 10 | N 5.5 | |



